Terminal Aerodrome Forecast
Issued by NWS

Home | Current Version | Previous Version | Text Only | Print | Product List | Glossary On
Versions: 1 2 3 4 5 6 7 8 9 10 11 12 13 14 15 16 17 18 19 20 21 22 23 24 25 26 27 28 29 30 31 32 33 34 35 36 37 38 39 40 41 42 43
000
FTUS45 KBOU 020008 AAA
TAFBJC
TAF AMD
KBJC 020008Z 0200/0224 20012KT P6SM VCSH SCT070 BKN100
      TEMPO 0201/0202 VRB15G25KT BKN080
     FM020300 01012G20KT P6SM SCT080 BKN120
     FM020800 06010KT P6SM SCT015 OVC035
     FM021300 07010KT P6SM SCT012 OVC020
      TEMPO 0213/0217 4SM -RASN BKN012
     FM021700 06010KT 3SM -SN BR SCT008 OVC015
     FM022100 02015G22KT 1SM -SN BR OVC010
     FM022300 02012G22KT 1/2SM SN FZFG SCT004 OVC008=

USA.gov is the U.S. government's official web portal to all federal, state and local government web resources and services.